sensor_id;sensor_type;location;lat;lon;timestamp;P1;durP1;ratioP1;P2;durP2;ratioP2
73642;SDS011;61938;48.652;9.292;2024-03-02T00:00:18;28.40;;;14.80;;
73642;SDS011;61938;48.652;9.292;2024-03-02T00:02:46;28.42;;;14.90;;
73642;SDS011;61938;48.652;9.292;2024-03-02T00:05:16;34.25;;;15.15;;
73642;SDS011;61938;48.652;9.292;2024-03-02T00:07:47;29.27;;;14.43;;
73642;SDS011;61938;48.652;9.292;2024-03-02T00:10:30;32.97;;;14.55;;
73642;SDS011;61938;48.652;9.292;2024-03-02T00:13:04;27.50;;;14.20;;
73642;SDS011;61938;48.652;9.292;2024-03-02T00:18:12;22.60;;;12.82;;
73642;SDS011;61938;48.652;9.292;2024-03-02T00:20:40;30.48;;;13.65;;
73642;SDS011;61938;48.652;9.292;2024-03-02T00:23:07;26.73;;;13.40;;
73642;SDS011;61938;48.652;9.292;2024-03-02T00:25:37;30.30;;;14.00;;
73642;SDS011;61938;48.652;9.292;2024-03-02T00:33:15;30.92;;;14.75;;
73642;SDS011;61938;48.652;9.292;2024-03-02T00:35:43;31.38;;;13.80;;
73642;SDS011;61938;48.652;9.292;2024-03-02T00:38:09;32.58;;;14.07;;
73642;SDS011;61938;48.652;9.292;2024-03-02T00:40:35;25.92;;;13.48;;
73642;SDS011;61938;48.652;9.292;2024-03-02T00:43:01;27.95;;;12.65;;
73642;SDS011;61938;48.652;9.292;2024-03-02T00:45:28;28.02;;;14.10;;
73642;SDS011;61938;48.652;9.292;2024-03-02T00:47:54;26.95;;;14.25;;
73642;SDS011;61938;48.652;9.292;2024-03-02T00:50:20;27.00;;;13.45;;
73642;SDS011;61938;48.652;9.292;2024-03-02T00:52:46;27.25;;;13.30;;
73642;SDS011;61938;48.652;9.292;2024-03-02T00:55:13;24.08;;;13.48;;
73642;SDS011;61938;48.652;9.292;2024-03-02T00:57:39;27.98;;;13.88;;
73642;SDS011;61938;48.652;9.292;2024-03-02T01:00:05;26.73;;;13.95;;
73642;SDS011;61938;48.652;9.292;2024-03-02T01:02:34;28.50;;;13.90;;
73642;SDS011;61938;48.652;9.292;2024-03-02T01:05:00;26.08;;;13.85;;
73642;SDS011;61938;48.652;9.292;2024-03-02T01:07:25;27.88;;;14.35;;
73642;SDS011;61938;48.652;9.292;2024-03-02T01:09:51;28.63;;;13.93;;
73642;SDS011;61938;48.652;9.292;2024-03-02T01:12:17;30.55;;;14.68;;
73642;SDS011;61938;48.652;9.292;2024-03-02T01:14:42;30.63;;;14.85;;
73642;SDS011;61938;48.652;9.292;2024-03-02T01:17:08;27.42;;;14.13;;
73642;SDS011;61938;48.652;9.292;2024-03-02T01:19:33;27.10;;;13.77;;
73642;SDS011;61938;48.652;9.292;2024-03-02T01:21:59;29.27;;;14.55;;
73642;SDS011;61938;48.652;9.292;2024-03-02T01:24:24;29.55;;;15.23;;
73642;SDS011;61938;48.652;9.292;2024-03-02T01:26:50;26.98;;;14.55;;
73642;SDS011;61938;48.652;9.292;2024-03-02T01:29:15;28.23;;;13.70;;
73642;SDS011;61938;48.652;9.292;2024-03-02T01:31:41;26.77;;;14.60;;
73642;SDS011;61938;48.652;9.292;2024-03-02T01:34:10;27.88;;;14.32;;
73642;SDS011;61938;48.652;9.292;2024-03-02T01:36:36;24.77;;;13.52;;
73642;SDS011;61938;48.652;9.292;2024-03-02T01:39:08;29.38;;;15.10;;
73642;SDS011;61938;48.652;9.292;2024-03-02T01:41:34;29.02;;;15.05;;
73642;SDS011;61938;48.652;9.292;2024-03-02T01:44:00;30.10;;;14.38;;
73642;SDS011;61938;48.652;9.292;2024-03-02T01:46:25;30.35;;;14.85;;
73642;SDS011;61938;48.652;9.292;2024-03-02T01:48:51;31.42;;;14.63;;
73642;SDS011;61938;48.652;9.292;2024-03-02T01:51:16;31.05;;;14.43;;
73642;SDS011;61938;48.652;9.292;2024-03-02T01:53:42;27.55;;;14.38;;
73642;SDS011;61938;48.652;9.292;2024-03-02T01:56:07;26.92;;;13.98;;
73642;SDS011;61938;48.652;9.292;2024-03-02T01:58:33;28.42;;;13.90;;
73642;SDS011;61938;48.652;9.292;2024-03-02T02:00:58;26.33;;;13.63;;
73642;SDS011;61938;48.652;9.292;2024-03-02T02:03:24;26.73;;;14.25;;
73642;SDS011;61938;48.652;9.292;2024-03-02T02:05:50;32.10;;;14.90;;
73642;SDS011;61938;48.652;9.292;2024-03-02T02:08:15;30.70;;;14.45;;
73642;SDS011;61938;48.652;9.292;2024-03-02T02:10:41;30.08;;;15.02;;
73642;SDS011;61938;48.652;9.292;2024-03-02T02:13:07;29.42;;;14.32;;
73642;SDS011;61938;48.652;9.292;2024-03-02T02:15:33;27.88;;;14.43;;
73642;SDS011;61938;48.652;9.292;2024-03-02T02:18:01;28.48;;;13.27;;
73642;SDS011;61938;48.652;9.292;2024-03-02T02:20:26;29.02;;;14.25;;
73642;SDS011;61938;48.652;9.292;2024-03-02T02:22:53;30.90;;;14.68;;
73642;SDS011;61938;48.652;9.292;2024-03-02T02:25:23;29.90;;;14.88;;
73642;SDS011;61938;48.652;9.292;2024-03-02T02:27:49;31.50;;;14.77;;
73642;SDS011;61938;48.652;9.292;2024-03-02T02:30:18;27.40;;;13.50;;
73642;SDS011;61938;48.652;9.292;2024-03-02T02:32:44;28.67;;;13.77;;
73642;SDS011;61938;48.652;9.292;2024-03-02T02:35:10;30.98;;;14.93;;
73642;SDS011;61938;48.652;9.292;2024-03-02T02:37:35;26.23;;;14.15;;
73642;SDS011;61938;48.652;9.292;2024-03-02T02:40:01;28.08;;;13.60;;
73642;SDS011;61938;48.652;9.292;2024-03-02T02:42:29;29.00;;;13.65;;
73642;SDS011;61938;48.652;9.292;2024-03-02T02:44:55;26.83;;;14.38;;
73642;SDS011;61938;48.652;9.292;2024-03-02T02:47:21;28.85;;;13.98;;
73642;SDS011;61938;48.652;9.292;2024-03-02T02:49:46;29.77;;;14.18;;
73642;SDS011;61938;48.652;9.292;2024-03-02T02:52:12;29.42;;;13.73;;
73642;SDS011;61938;48.652;9.292;2024-03-02T02:54:37;34.47;;;14.63;;
73642;SDS011;61938;48.652;9.292;2024-03-02T02:57:09;27.38;;;13.63;;
73642;SDS011;61938;48.652;9.292;2024-03-02T02:59:35;29.05;;;14.25;;
73642;SDS011;61938;48.652;9.292;2024-03-02T03:02:01;25.60;;;13.25;;
73642;SDS011;61938;48.652;9.292;2024-03-02T03:04:26;30.35;;;13.38;;
73642;SDS011;61938;48.652;9.292;2024-03-02T03:06:51;35.20;;;14.90;;
73642;SDS011;61938;48.652;9.292;2024-03-02T03:09:17;28.25;;;14.88;;
73642;SDS011;61938;48.652;9.292;2024-03-02T03:11:43;27.60;;;13.93;;
73642;SDS011;61938;48.652;9.292;2024-03-02T03:14:08;29.48;;;13.27;;
73642;SDS011;61938;48.652;9.292;2024-03-02T03:16:34;27.50;;;13.68;;
73642;SDS011;61938;48.652;9.292;2024-03-02T03:18:59;28.83;;;12.85;;
73642;SDS011;61938;48.652;9.292;2024-03-02T03:21:25;25.83;;;13.27;;
73642;SDS011;61938;48.652;9.292;2024-03-02T03:23:50;29.15;;;13.48;;
73642;SDS011;61938;48.652;9.292;2024-03-02T03:26:16;26.63;;;13.23;;
73642;SDS011;61938;48.652;9.292;2024-03-02T03:28:41;26.63;;;12.82;;
73642;SDS011;61938;48.652;9.292;2024-03-02T03:31:07;26.63;;;13.10;;
73642;SDS011;61938;48.652;9.292;2024-03-02T03:33:32;28.00;;;12.90;;
73642;SDS011;61938;48.652;9.292;2024-03-02T03:35:58;26.30;;;13.38;;
73642;SDS011;61938;48.652;9.292;2024-03-02T03:38:23;28.48;;;13.93;;
73642;SDS011;61938;48.652;9.292;2024-03-02T03:40:49;29.48;;;12.48;;
73642;SDS011;61938;48.652;9.292;2024-03-02T03:43:14;26.90;;;12.77;;
73642;SDS011;61938;48.652;9.292;2024-03-02T03:45:40;29.58;;;14.52;;
73642;SDS011;61938;48.652;9.292;2024-03-02T03:48:06;26.60;;;12.60;;
73642;SDS011;61938;48.652;9.292;2024-03-02T03:50:31;29.08;;;13.10;;
73642;SDS011;61938;48.652;9.292;2024-03-02T03:52:57;27.52;;;12.85;;
73642;SDS011;61938;48.652;9.292;2024-03-02T03:55:22;24.70;;;11.50;;
73642;SDS011;61938;48.652;9.292;2024-03-02T03:57:48;25.60;;;12.13;;
73642;SDS011;61938;48.652;9.292;2024-03-02T04:00:13;24.55;;;12.70;;
73642;SDS011;61938;48.652;9.292;2024-03-02T04:02:39;24.17;;;12.10;;
73642;SDS011;61938;48.652;9.292;2024-03-02T04:05:05;26.13;;;12.40;;
73642;SDS011;61938;48.652;9.292;2024-03-02T04:07:34;25.25;;;12.90;;
73642;SDS011;61938;48.652;9.292;2024-03-02T04:10:05;27.25;;;13.15;;
73642;SDS011;61938;48.652;9.292;2024-03-02T04:12:35;26.35;;;11.70;;
73642;SDS011;61938;48.652;9.292;2024-03-02T04:15:02;22.95;;;12.02;;
73642;SDS011;61938;48.652;9.292;2024-03-02T04:17:28;22.73;;;11.95;;
73642;SDS011;61938;48.652;9.292;2024-03-02T04:19:55;26.25;;;12.75;;
73642;SDS011;61938;48.652;9.292;2024-03-02T04:22:21;24.15;;;12.23;;
73642;SDS011;61938;48.652;9.292;2024-03-02T04:24:46;21.60;;;11.52;;
73642;SDS011;61938;48.652;9.292;2024-03-02T04:27:12;24.45;;;11.93;;
73642;SDS011;61938;48.652;9.292;2024-03-02T04:29:37;28.00;;;13.20;;
73642;SDS011;61938;48.652;9.292;2024-03-02T04:32:03;25.95;;;11.57;;
73642;SDS011;61938;48.652;9.292;2024-03-02T04:34:29;27.25;;;12.07;;
73642;SDS011;61938;48.652;9.292;2024-03-02T04:36:55;25.60;;;12.43;;
73642;SDS011;61938;48.652;9.292;2024-03-02T04:39:21;24.85;;;11.40;;
73642;SDS011;61938;48.652;9.292;2024-03-02T04:41:46;23.02;;;11.70;;
73642;SDS011;61938;48.652;9.292;2024-03-02T04:44:12;25.13;;;11.52;;
73642;SDS011;61938;48.652;9.292;2024-03-02T04:46:38;25.48;;;10.85;;
73642;SDS011;61938;48.652;9.292;2024-03-02T04:49:03;24.05;;;10.77;;
73642;SDS011;61938;48.652;9.292;2024-03-02T04:51:29;24.13;;;10.98;;
73642;SDS011;61938;48.652;9.292;2024-03-02T04:53:55;22.70;;;12.00;;
73642;SDS011;61938;48.652;9.292;2024-03-02T04:56:20;26.35;;;11.30;;
73642;SDS011;61938;48.652;9.292;2024-03-02T04:58:58;23.35;;;12.13;;
73642;SDS011;61938;48.652;9.292;2024-03-02T05:01:31;26.33;;;11.80;;
73642;SDS011;61938;48.652;9.292;2024-03-02T05:04:04;23.83;;;10.80;;
73642;SDS011;61938;48.652;9.292;2024-03-02T05:06:37;24.65;;;11.30;;
73642;SDS011;61938;48.652;9.292;2024-03-02T05:09:04;25.02;;;11.35;;
73642;SDS011;61938;48.652;9.292;2024-03-02T05:11:30;22.17;;;11.48;;
73642;SDS011;61938;48.652;9.292;2024-03-02T05:14:04;20.55;;;10.32;;
73642;SDS011;61938;48.652;9.292;2024-03-02T05:16:37;22.77;;;11.55;;
73642;SDS011;61938;48.652;9.292;2024-03-02T05:19:06;19.13;;;10.02;;
73642;SDS011;61938;48.652;9.292;2024-03-02T05:21:32;24.90;;;11.15;;
73642;SDS011;61938;48.652;9.292;2024-03-02T05:23:58;22.02;;;11.20;;
73642;SDS011;61938;48.652;9.292;2024-03-02T05:26:24;22.88;;;11.00;;
73642;SDS011;61938;48.652;9.292;2024-03-02T05:28:50;26.48;;;11.85;;
73642;SDS011;61938;48.652;9.292;2024-03-02T05:31:15;25.73;;;11.50;;
73642;SDS011;61938;48.652;9.292;2024-03-02T05:33:41;24.85;;;11.75;;
73642;SDS011;61938;48.652;9.292;2024-03-02T05:36:07;27.10;;;12.35;;
73642;SDS011;61938;48.652;9.292;2024-03-02T05:38:36;24.00;;;12.00;;
73642;SDS011;61938;48.652;9.292;2024-03-02T05:41:02;22.60;;;11.23;;
73642;SDS011;61938;48.652;9.292;2024-03-02T05:43:28;24.83;;;11.48;;
73642;SDS011;61938;48.652;9.292;2024-03-02T05:45:53;22.15;;;10.90;;
73642;SDS011;61938;48.652;9.292;2024-03-02T05:48:19;24.40;;;12.32;;
73642;SDS011;61938;48.652;9.292;2024-03-02T05:50:45;22.95;;;10.90;;
73642;SDS011;61938;48.652;9.292;2024-03-02T05:53:10;28.83;;;12.23;;
73642;SDS011;61938;48.652;9.292;2024-03-02T05:55:36;24.05;;;11.60;;
73642;SDS011;61938;48.652;9.292;2024-03-02T05:58:01;23.65;;;11.45;;
73642;SDS011;61938;48.652;9.292;2024-03-02T06:00:45;19.00;;;9.55;;
73642;SDS011;61938;48.652;9.292;2024-03-02T06:03:11;18.65;;;10.05;;
73642;SDS011;61938;48.652;9.292;2024-03-02T06:05:36;17.15;;;9.52;;
73642;SDS011;61938;48.652;9.292;2024-03-02T06:08:02;21.58;;;9.90;;
73642;SDS011;61938;48.652;9.292;2024-03-02T06:10:28;23.67;;;10.57;;
73642;SDS011;61938;48.652;9.292;2024-03-02T06:12:53;19.77;;;10.43;;
73642;SDS011;61938;48.652;9.292;2024-03-02T06:15:19;20.98;;;10.05;;
73642;SDS011;61938;48.652;9.292;2024-03-02T06:17:44;19.65;;;10.10;;
73642;SDS011;61938;48.652;9.292;2024-03-02T06:20:10;18.63;;;10.05;;
73642;SDS011;61938;48.652;9.292;2024-03-02T06:22:36;23.45;;;11.18;;
73642;SDS011;61938;48.652;9.292;2024-03-02T06:25:02;22.13;;;11.23;;
73642;SDS011;61938;48.652;9.292;2024-03-02T06:27:27;19.45;;;10.50;;
73642;SDS011;61938;48.652;9.292;2024-03-02T06:29:53;21.77;;;10.88;;
73642;SDS011;61938;48.652;9.292;2024-03-02T06:32:19;18.45;;;10.48;;
73642;SDS011;61938;48.652;9.292;2024-03-02T06:34:45;22.95;;;11.32;;
73642;SDS011;61938;48.652;9.292;2024-03-02T06:37:10;21.40;;;11.30;;
73642;SDS011;61938;48.652;9.292;2024-03-02T06:39:36;22.85;;;11.40;;
73642;SDS011;61938;48.652;9.292;2024-03-02T06:42:02;23.08;;;11.95;;
73642;SDS011;61938;48.652;9.292;2024-03-02T06:44:28;24.80;;;12.18;;
73642;SDS011;61938;48.652;9.292;2024-03-02T06:46:53;21.80;;;11.38;;
73642;SDS011;61938;48.652;9.292;2024-03-02T06:49:19;23.70;;;12.35;;
73642;SDS011;61938;48.652;9.292;2024-03-02T06:51:44;27.13;;;13.55;;
73642;SDS011;61938;48.652;9.292;2024-03-02T06:54:10;24.73;;;12.27;;
73642;SDS011;61938;48.652;9.292;2024-03-02T06:56:35;26.30;;;13.30;;
73642;SDS011;61938;48.652;9.292;2024-03-02T06:59:02;22.65;;;10.93;;
73642;SDS011;61938;48.652;9.292;2024-03-02T07:01:28;26.10;;;13.38;;
73642;SDS011;61938;48.652;9.292;2024-03-02T07:03:53;25.92;;;12.48;;
73642;SDS011;61938;48.652;9.292;2024-03-02T07:06:19;31.15;;;15.52;;
73642;SDS011;61938;48.652;9.292;2024-03-02T07:08:44;32.30;;;16.45;;
73642;SDS011;61938;48.652;9.292;2024-03-02T07:11:10;29.75;;;15.63;;
73642;SDS011;61938;48.652;9.292;2024-03-02T07:13:35;29.75;;;14.88;;
73642;SDS011;61938;48.652;9.292;2024-03-02T07:16:01;29.60;;;14.15;;
73642;SDS011;61938;48.652;9.292;2024-03-02T07:18:35;24.55;;;13.43;;
73642;SDS011;61938;48.652;9.292;2024-03-02T07:21:06;23.80;;;12.55;;
73642;SDS011;61938;48.652;9.292;2024-03-02T07:23:40;20.35;;;10.18;;
73642;SDS011;61938;48.652;9.292;2024-03-02T07:26:05;23.38;;;10.90;;
73642;SDS011;61938;48.652;9.292;2024-03-02T07:28:32;22.45;;;11.13;;
73642;SDS011;61938;48.652;9.292;2024-03-02T07:31:01;22.30;;;10.77;;
73642;SDS011;61938;48.652;9.292;2024-03-02T07:33:28;20.17;;;10.65;;
73642;SDS011;61938;48.652;9.292;2024-03-02T07:35:54;23.98;;;11.90;;
73642;SDS011;61938;48.652;9.292;2024-03-02T07:38:27;23.77;;;11.50;;
73642;SDS011;61938;48.652;9.292;2024-03-02T07:40:53;20.98;;;10.55;;
73642;SDS011;61938;48.652;9.292;2024-03-02T07:43:20;25.23;;;11.70;;
73642;SDS011;61938;48.652;9.292;2024-03-02T07:45:46;22.40;;;11.18;;
73642;SDS011;61938;48.652;9.292;2024-03-02T07:48:12;20.40;;;10.40;;
73642;SDS011;61938;48.652;9.292;2024-03-02T07:50:38;21.45;;;10.32;;
73642;SDS011;61938;48.652;9.292;2024-03-02T07:53:04;20.83;;;10.38;;
73642;SDS011;61938;48.652;9.292;2024-03-02T07:55:30;19.58;;;10.10;;
73642;SDS011;61938;48.652;9.292;2024-03-02T07:57:56;22.95;;;11.88;;
73642;SDS011;61938;48.652;9.292;2024-03-02T08:00:22;22.25;;;9.98;;
73642;SDS011;61938;48.652;9.292;2024-03-02T08:02:48;24.38;;;10.85;;
73642;SDS011;61938;48.652;9.292;2024-03-02T08:05:15;25.35;;;11.32;;
73642;SDS011;61938;48.652;9.292;2024-03-02T08:07:41;26.50;;;10.70;;
73642;SDS011;61938;48.652;9.292;2024-03-02T08:10:09;23.60;;;12.05;;
73642;SDS011;61938;48.652;9.292;2024-03-02T08:12:35;23.63;;;10.45;;
73642;SDS011;61938;48.652;9.292;2024-03-02T08:15:00;20.58;;;10.57;;
73642;SDS011;61938;48.652;9.292;2024-03-02T08:17:26;22.27;;;10.70;;
73642;SDS011;61938;48.652;9.292;2024-03-02T08:19:51;18.50;;;9.73;;
73642;SDS011;61938;48.652;9.292;2024-03-02T08:22:17;19.92;;;10.13;;
73642;SDS011;61938;48.652;9.292;2024-03-02T08:24:43;21.42;;;10.50;;
73642;SDS011;61938;48.652;9.292;2024-03-02T08:27:09;22.42;;;11.30;;
73642;SDS011;61938;48.652;9.292;2024-03-02T08:29:34;21.45;;;10.07;;
73642;SDS011;61938;48.652;9.292;2024-03-02T08:32:00;22.90;;;10.82;;
73642;SDS011;61938;48.652;9.292;2024-03-02T08:34:26;16.02;;;9.73;;
73642;SDS011;61938;48.652;9.292;2024-03-02T08:36:51;20.02;;;10.65;;
73642;SDS011;61938;48.652;9.292;2024-03-02T08:39:17;18.83;;;9.80;;
73642;SDS011;61938;48.652;9.292;2024-03-02T08:41:44;21.27;;;9.95;;
73642;SDS011;61938;48.652;9.292;2024-03-02T08:44:10;21.60;;;9.90;;
73642;SDS011;61938;48.652;9.292;2024-03-02T08:46:37;19.27;;;9.40;;
73642;SDS011;61938;48.652;9.292;2024-03-02T08:49:02;15.10;;;8.07;;
73642;SDS011;61938;48.652;9.292;2024-03-02T08:51:29;16.35;;;8.13;;
73642;SDS011;61938;48.652;9.292;2024-03-02T08:53:55;17.55;;;8.60;;
73642;SDS011;61938;48.652;9.292;2024-03-02T08:56:28;16.13;;;8.10;;
73642;SDS011;61938;48.652;9.292;2024-03-02T08:58:54;25.02;;;8.68;;
73642;SDS011;61938;48.652;9.292;2024-03-02T09:01:20;16.27;;;8.18;;
73642;SDS011;61938;48.652;9.292;2024-03-02T09:03:45;31.27;;;9.10;;
73642;SDS011;61938;48.652;9.292;2024-03-02T09:06:11;27.00;;;10.68;;
73642;SDS011;61938;48.652;9.292;2024-03-02T09:08:38;18.17;;;9.05;;
73642;SDS011;61938;48.652;9.292;2024-03-02T09:11:04;22.67;;;10.82;;
73642;SDS011;61938;48.652;9.292;2024-03-02T09:13:30;22.48;;;10.98;;
73642;SDS011;61938;48.652;9.292;2024-03-02T09:15:56;23.38;;;10.65;;
73642;SDS011;61938;48.652;9.292;2024-03-02T09:18:22;27.95;;;10.95;;
73642;SDS011;61938;48.652;9.292;2024-03-02T09:20:47;20.95;;;10.73;;
73642;SDS011;61938;48.652;9.292;2024-03-02T09:23:13;17.45;;;9.13;;
73642;SDS011;61938;48.652;9.292;2024-03-02T09:25:39;15.43;;;8.30;;
73642;SDS011;61938;48.652;9.292;2024-03-02T09:28:04;18.00;;;8.15;;
73642;SDS011;61938;48.652;9.292;2024-03-02T09:30:30;12.73;;;6.80;;
73642;SDS011;61938;48.652;9.292;2024-03-02T09:32:55;15.43;;;7.95;;
73642;SDS011;61938;48.652;9.292;2024-03-02T09:35:21;16.35;;;8.43;;
73642;SDS011;61938;48.652;9.292;2024-03-02T09:37:46;13.30;;;7.55;;
73642;SDS011;61938;48.652;9.292;2024-03-02T09:40:13;13.38;;;6.63;;
73642;SDS011;61938;48.652;9.292;2024-03-02T09:42:39;15.50;;;7.43;;
73642;SDS011;61938;48.652;9.292;2024-03-02T09:45:06;13.10;;;7.03;;
73642;SDS011;61938;48.652;9.292;2024-03-02T09:47:32;14.75;;;7.18;;
73642;SDS011;61938;48.652;9.292;2024-03-02T09:49:58;20.55;;;8.00;;
73642;SDS011;61938;48.652;9.292;2024-03-02T09:52:24;13.18;;;7.10;;
73642;SDS011;61938;48.652;9.292;2024-03-02T09:54:49;15.15;;;7.65;;
73642;SDS011;61938;48.652;9.292;2024-03-02T09:57:15;16.17;;;7.43;;
73642;SDS011;61938;48.652;9.292;2024-03-02T09:59:41;12.02;;;6.88;;
73642;SDS011;61938;48.652;9.292;2024-03-02T10:02:06;10.88;;;6.50;;
73642;SDS011;61938;48.652;9.292;2024-03-02T10:04:33;12.57;;;6.78;;
73642;SDS011;61938;48.652;9.292;2024-03-02T10:09:36;9.02;;;5.40;;
73642;SDS011;61938;48.652;9.292;2024-03-02T10:12:05;9.07;;;5.65;;
73642;SDS011;61938;48.652;9.292;2024-03-02T10:14:32;9.77;;;6.03;;
73642;SDS011;61938;48.652;9.292;2024-03-02T10:17:02;10.48;;;5.38;;
73642;SDS011;61938;48.652;9.292;2024-03-02T10:19:28;10.10;;;5.40;;
73642;SDS011;61938;48.652;9.292;2024-03-02T10:21:58;11.07;;;5.13;;
73642;SDS011;61938;48.652;9.292;2024-03-02T10:24:24;7.93;;;4.95;;
73642;SDS011;61938;48.652;9.292;2024-03-02T10:26:50;9.68;;;5.22;;
73642;SDS011;61938;48.652;9.292;2024-03-02T10:29:16;11.23;;;4.70;;
73642;SDS011;61938;48.652;9.292;2024-03-02T10:31:43;8.00;;;4.75;;
73642;SDS011;61938;48.652;9.292;2024-03-02T10:34:10;7.95;;;4.85;;
73642;SDS011;61938;48.652;9.292;2024-03-02T10:36:37;9.07;;;4.82;;
73642;SDS011;61938;48.652;9.292;2024-03-02T10:39:07;8.48;;;5.10;;
73642;SDS011;61938;48.652;9.292;2024-03-02T10:41:37;7.72;;;4.63;;
73642;SDS011;61938;48.652;9.292;2024-03-02T10:44:04;8.25;;;4.55;;
73642;SDS011;61938;48.652;9.292;2024-03-02T10:46:37;8.07;;;4.70;;
73642;SDS011;61938;48.652;9.292;2024-03-02T10:49:03;7.20;;;4.30;;
73642;SDS011;61938;48.652;9.292;2024-03-02T10:51:31;7.28;;;4.22;;
73642;SDS011;61938;48.652;9.292;2024-03-02T10:53:58;8.65;;;2.97;;
73642;SDS011;61938;48.652;9.292;2024-03-02T10:56:28;5.32;;;2.75;;
73642;SDS011;61938;48.652;9.292;2024-03-02T10:59:01;5.80;;;2.70;;
73642;SDS011;61938;48.652;9.292;2024-03-02T11:01:29;6.20;;;3.40;;
73642;SDS011;61938;48.652;9.292;2024-03-02T11:03:56;5.10;;;3.15;;
73642;SDS011;61938;48.652;9.292;2024-03-02T11:06:23;5.15;;;2.20;;
73642;SDS011;61938;48.652;9.292;2024-03-02T11:08:51;5.82;;;2.83;;
73642;SDS011;61938;48.652;9.292;2024-03-02T11:11:29;5.10;;;3.00;;
73642;SDS011;61938;48.652;9.292;2024-03-02T11:14:04;39.42;;;4.93;;
73642;SDS011;61938;48.652;9.292;2024-03-02T11:19:02;7.90;;;3.00;;
73642;SDS011;61938;48.652;9.292;2024-03-02T11:21:29;8.00;;;2.75;;
73642;SDS011;61938;48.652;9.292;2024-03-02T11:23:56;4.40;;;2.58;;
73642;SDS011;61938;48.652;9.292;2024-03-02T11:26:22;5.18;;;2.70;;
73642;SDS011;61938;48.652;9.292;2024-03-02T11:28:49;3.97;;;2.30;;
73642;SDS011;61938;48.652;9.292;2024-03-02T11:31:15;6.88;;;2.10;;
73642;SDS011;61938;48.652;9.292;2024-03-02T11:33:41;5.35;;;2.08;;
73642;SDS011;61938;48.652;9.292;2024-03-02T11:36:08;5.10;;;3.10;;
73642;SDS011;61938;48.652;9.292;2024-03-02T11:38:34;5.60;;;3.50;;
73642;SDS011;61938;48.652;9.292;2024-03-02T11:41:07;6.07;;;2.90;;
73642;SDS011;61938;48.652;9.292;2024-03-02T11:43:39;4.70;;;2.40;;
73642;SDS011;61938;48.652;9.292;2024-03-02T11:46:06;4.75;;;2.67;;
73642;SDS011;61938;48.652;9.292;2024-03-02T11:48:32;5.25;;;2.75;;
73642;SDS011;61938;48.652;9.292;2024-03-02T11:51:00;6.18;;;3.67;;
73642;SDS011;61938;48.652;9.292;2024-03-02T11:53:26;5.40;;;3.47;;
73642;SDS011;61938;48.652;9.292;2024-03-02T11:55:57;4.95;;;3.35;;
73642;SDS011;61938;48.652;9.292;2024-03-02T11:58:24;4.05;;;2.60;;
73642;SDS011;61938;48.652;9.292;2024-03-02T12:00:51;6.45;;;3.17;;
73642;SDS011;61938;48.652;9.292;2024-03-02T12:03:22;4.95;;;2.85;;
73642;SDS011;61938;48.652;9.292;2024-03-02T12:05:49;3.45;;;2.05;;
73642;SDS011;61938;48.652;9.292;2024-03-02T12:08:15;4.40;;;1.90;;
73642;SDS011;61938;48.652;9.292;2024-03-02T12:10:42;3.55;;;1.85;;
73642;SDS011;61938;48.652;9.292;2024-03-02T12:13:08;3.78;;;2.20;;
73642;SDS011;61938;48.652;9.292;2024-03-02T12:15:36;4.95;;;1.95;;
73642;SDS011;61938;48.652;9.292;2024-03-02T12:18:03;2.47;;;1.45;;
73642;SDS011;61938;48.652;9.292;2024-03-02T12:20:31;2.10;;;1.33;;
73642;SDS011;61938;48.652;9.292;2024-03-02T12:22:58;6.65;;;1.88;;
73642;SDS011;61938;48.652;9.292;2024-03-02T12:25:26;4.25;;;2.17;;
73642;SDS011;61938;48.652;9.292;2024-03-02T12:27:56;4.85;;;1.73;;
73642;SDS011;61938;48.652;9.292;2024-03-02T12:30:24;3.85;;;1.92;;
73642;SDS011;61938;48.652;9.292;2024-03-02T12:32:51;3.42;;;1.77;;
73642;SDS011;61938;48.652;9.292;2024-03-02T12:35:17;5.97;;;1.67;;
73642;SDS011;61938;48.652;9.292;2024-03-02T12:37:50;8.73;;;1.70;;
73642;SDS011;61938;48.652;9.292;2024-03-02T12:40:16;8.68;;;3.75;;
73642;SDS011;61938;48.652;9.292;2024-03-02T12:42:44;4.68;;;2.78;;
73642;SDS011;61938;48.652;9.292;2024-03-02T12:45:10;5.35;;;2.25;;
73642;SDS011;61938;48.652;9.292;2024-03-02T12:47:37;3.15;;;2.00;;
73642;SDS011;61938;48.652;9.292;2024-03-02T12:50:04;3.78;;;1.52;;
73642;SDS011;61938;48.652;9.292;2024-03-02T12:52:30;1.92;;;1.20;;
73642;SDS011;61938;48.652;9.292;2024-03-02T12:54:59;2.50;;;1.13;;
73642;SDS011;61938;48.652;9.292;2024-03-02T12:57:26;12.05;;;6.85;;
73642;SDS011;61938;48.652;9.292;2024-03-02T12:59:56;6.50;;;3.60;;
73642;SDS011;61938;48.652;9.292;2024-03-02T13:02:23;8.35;;;4.28;;
73642;SDS011;61938;48.652;9.292;2024-03-02T13:04:52;6.65;;;3.63;;
73642;SDS011;61938;48.652;9.292;2024-03-02T13:07:19;4.72;;;2.40;;
73642;SDS011;61938;48.652;9.292;2024-03-02T13:09:45;3.78;;;2.30;;
73642;SDS011;61938;48.652;9.292;2024-03-02T13:12:11;3.53;;;2.10;;
73642;SDS011;61938;48.652;9.292;2024-03-02T13:14:36;3.88;;;2.38;;
73642;SDS011;61938;48.652;9.292;2024-03-02T13:17:02;2.55;;;1.55;;
73642;SDS011;61938;48.652;9.292;2024-03-02T13:19:30;2.38;;;1.25;;
73642;SDS011;61938;48.652;9.292;2024-03-02T13:21:56;3.03;;;1.60;;
73642;SDS011;61938;48.652;9.292;2024-03-02T13:24:22;3.58;;;1.40;;
73642;SDS011;61938;48.652;9.292;2024-03-02T13:26:50;2.53;;;1.30;;
73642;SDS011;61938;48.652;9.292;2024-03-02T13:29:20;2.25;;;1.20;;
73642;SDS011;61938;48.652;9.292;2024-03-02T13:31:46;2.47;;;1.33;;
73642;SDS011;61938;48.652;9.292;2024-03-02T13:34:11;1.35;;;1.05;;
73642;SDS011;61938;48.652;9.292;2024-03-02T13:36:37;2.40;;;1.30;;
73642;SDS011;61938;48.652;9.292;2024-03-02T13:39:03;3.38;;;1.60;;
73642;SDS011;61938;48.652;9.292;2024-03-02T13:41:30;2.65;;;1.40;;
73642;SDS011;61938;48.652;9.292;2024-03-02T13:43:56;2.17;;;0.82;;
73642;SDS011;61938;48.652;9.292;2024-03-02T13:46:26;1.35;;;0.90;;
73642;SDS011;61938;48.652;9.292;2024-03-02T13:48:51;1.77;;;1.20;;
73642;SDS011;61938;48.652;9.292;2024-03-02T13:51:17;1.73;;;1.13;;
73642;SDS011;61938;48.652;9.292;2024-03-02T13:53:42;1.52;;;0.80;;
73642;SDS011;61938;48.652;9.292;2024-03-02T13:56:08;4.25;;;1.13;;
73642;SDS011;61938;48.652;9.292;2024-03-02T13:58:34;2.13;;;0.90;;
73642;SDS011;61938;48.652;9.292;2024-03-02T14:00:59;4.32;;;1.13;;
73642;SDS011;61938;48.652;9.292;2024-03-02T14:03:26;1.60;;;1.20;;
73642;SDS011;61938;48.652;9.292;2024-03-02T14:05:52;1.50;;;1.00;;
73642;SDS011;61938;48.652;9.292;2024-03-02T14:08:18;1.58;;;0.90;;
73642;SDS011;61938;48.652;9.292;2024-03-02T14:10:50;1.48;;;0.90;;
73642;SDS011;61938;48.652;9.292;2024-03-02T14:13:16;3.35;;;1.35;;
73642;SDS011;61938;48.652;9.292;2024-03-02T14:15:41;1.65;;;1.00;;
73642;SDS011;61938;48.652;9.292;2024-03-02T14:18:07;1.88;;;1.20;;
73642;SDS011;61938;48.652;9.292;2024-03-02T14:20:35;1.80;;;0.90;;
73642;SDS011;61938;48.652;9.292;2024-03-02T14:23:02;3.35;;;0.93;;
73642;SDS011;61938;48.652;9.292;2024-03-02T14:25:28;1.63;;;0.98;;
73642;SDS011;61938;48.652;9.292;2024-03-02T14:27:56;1.05;;;0.80;;
73642;SDS011;61938;48.652;9.292;2024-03-02T14:30:22;1.25;;;0.77;;
73642;SDS011;61938;48.652;9.292;2024-03-02T14:32:48;1.77;;;1.08;;
73642;SDS011;61938;48.652;9.292;2024-03-02T14:35:14;1.42;;;0.85;;
73642;SDS011;61938;48.652;9.292;2024-03-02T14:37:40;4.20;;;0.93;;
73642;SDS011;61938;48.652;9.292;2024-03-02T14:40:05;1.08;;;0.80;;